sensor_id;sensor_type;location;lat;lon;timestamp;pressure;altitude;pressure_sealevel;temperature;humidity
59104;BME280;51449;51.676;5.812;2023-11-21T00:00:53;100987.00;;;9.34;83.32
59104;BME280;51449;51.676;5.812;2023-11-21T00:03:15;100996.09;;;9.34;83.23
59104;BME280;51449;51.676;5.812;2023-11-21T00:05:37;100997.22;;;9.33;83.48
59104;BME280;51449;51.676;5.812;2023-11-21T00:07:59;100999.16;;;9.33;83.39
59104;BME280;51449;51.676;5.812;2023-11-21T00:10:21;100995.91;;;9.31;83.47
59104;BME280;51449;51.676;5.812;2023-11-21T00:12:43;101002.22;;;9.31;83.56
59104;BME280;51449;51.676;5.812;2023-11-21T00:15:05;101006.59;;;9.32;83.45
59104;BME280;51449;51.676;5.812;2023-11-21T00:17:27;101008.06;;;9.30;83.38
59104;BME280;51449;51.676;5.812;2023-11-21T00:19:49;101010.00;;;9.29;83.56
59104;BME280;51449;51.676;5.812;2023-11-21T00:22:13;101008.38;;;9.28;82.91
59104;BME280;51449;51.676;5.812;2023-11-21T00:24:35;101005.47;;;9.25;83.30
59104;BME280;51449;51.676;5.812;2023-11-21T00:26:57;101012.41;;;9.22;83.47
59104;BME280;51449;51.676;5.812;2023-11-21T00:29:19;101013.53;;;9.21;83.21
59104;BME280;51449;51.676;5.812;2023-11-21T00:31:41;101008.97;;;9.16;83.29
59104;BME280;51449;51.676;5.812;2023-11-21T00:34:03;101011.88;;;9.11;83.13
59104;BME280;51449;51.676;5.812;2023-11-21T00:36:28;101014.47;;;9.08;82.92
59104;BME280;51449;51.676;5.812;2023-11-21T00:38:50;101007.47;;;9.02;83.10
59104;BME280;51449;51.676;5.812;2023-11-21T00:41:12;101013.63;;;8.98;83.16
59104;BME280;51449;51.676;5.812;2023-11-21T00:43:33;101014.56;;;8.94;83.12
59104;BME280;51449;51.676;5.812;2023-11-21T00:45:55;101005.69;;;8.88;82.96
59104;BME280;51449;51.676;5.812;2023-11-21T00:48:17;101011.31;;;8.83;83.20
59104;BME280;51449;51.676;5.812;2023-11-21T00:50:42;101005.63;;;8.79;83.10
59104;BME280;51449;51.676;5.812;2023-11-21T00:53:04;101010.16;;;8.75;83.07
59104;BME280;51449;51.676;5.812;2023-11-21T00:55:25;101008.34;;;8.71;82.88
59104;BME280;51449;51.676;5.812;2023-11-21T00:57:48;101008.66;;;8.69;83.07
59104;BME280;51449;51.676;5.812;2023-11-21T01:00:10;101015.91;;;8.65;83.08
59104;BME280;51449;51.676;5.812;2023-11-21T01:02:37;101030.78;;;8.64;83.29
59104;BME280;51449;51.676;5.812;2023-11-21T01:04:59;101029.78;;;8.60;83.26
59104;BME280;51449;51.676;5.812;2023-11-21T01:07:21;101033.66;;;8.59;83.29
59104;BME280;51449;51.676;5.812;2023-11-21T01:09:44;101029.28;;;8.58;82.92
59104;BME280;51449;51.676;5.812;2023-11-21T01:12:07;101037.53;;;8.58;83.22
59104;BME280;51449;51.676;5.812;2023-11-21T01:14:29;101037.84;;;8.56;83.20
59104;BME280;51449;51.676;5.812;2023-11-21T01:16:51;101035.09;;;8.56;83.34
59104;BME280;51449;51.676;5.812;2023-11-21T01:19:13;101038.50;;;8.53;83.15
59104;BME280;51449;51.676;5.812;2023-11-21T01:21:36;101048.97;;;8.51;83.06
59104;BME280;51449;51.676;5.812;2023-11-21T01:23:58;101052.66;;;8.47;83.13
59104;BME280;51449;51.676;5.812;2023-11-21T01:26:21;101060.41;;;8.45;83.10
59104;BME280;51449;51.676;5.812;2023-11-21T01:28:42;101063.44;;;8.43;83.50
59104;BME280;51449;51.676;5.812;2023-11-21T01:31:04;101068.13;;;8.43;83.23
59104;BME280;51449;51.676;5.812;2023-11-21T01:33:28;101067.31;;;8.42;83.25
59104;BME280;51449;51.676;5.812;2023-11-21T01:35:51;101068.94;;;8.43;83.29
59104;BME280;51449;51.676;5.812;2023-11-21T01:38:16;101069.75;;;8.44;83.20
59104;BME280;51449;51.676;5.812;2023-11-21T01:40:39;101072.19;;;8.45;83.48
59104;BME280;51449;51.676;5.812;2023-11-21T01:43:01;101079.31;;;8.46;83.51
59104;BME280;51449;51.676;5.812;2023-11-21T01:45:26;101075.44;;;8.47;83.56
59104;BME280;51449;51.676;5.812;2023-11-21T01:47:48;101075.94;;;8.49;83.56
59104;BME280;51449;51.676;5.812;2023-11-21T01:50:14;101072.03;;;8.50;83.65
59104;BME280;51449;51.676;5.812;2023-11-21T01:52:39;101074.19;;;8.53;83.63
59104;BME280;51449;51.676;5.812;2023-11-21T01:55:03;101078.53;;;8.54;83.20
59104;BME280;51449;51.676;5.812;2023-11-21T01:57:27;101076.28;;;8.56;83.74
59104;BME280;51449;51.676;5.812;2023-11-21T01:59:51;101075.66;;;8.60;83.45
59104;BME280;51449;51.676;5.812;2023-11-21T02:02:15;101074.53;;;8.61;83.68
59104;BME280;51449;51.676;5.812;2023-11-21T02:04:39;101063.53;;;8.61;83.65
59104;BME280;51449;51.676;5.812;2023-11-21T02:07:01;101062.75;;;8.60;83.82
59104;BME280;51449;51.676;5.812;2023-11-21T02:09:29;101069.88;;;8.61;83.58
59104;BME280;51449;51.676;5.812;2023-11-21T02:11:54;101069.53;;;8.63;83.87
59104;BME280;51449;51.676;5.812;2023-11-21T02:14:20;101077.78;;;8.63;83.66
59104;BME280;51449;51.676;5.812;2023-11-21T02:16:43;101074.72;;;8.64;83.65
59104;BME280;51449;51.676;5.812;2023-11-21T02:19:10;101081.53;;;8.67;83.85
59104;BME280;51449;51.676;5.812;2023-11-21T02:21:40;101094.94;;;8.68;83.56
59104;BME280;51449;51.676;5.812;2023-11-21T02:24:02;101099.63;;;8.68;83.34
59104;BME280;51449;51.676;5.812;2023-11-21T02:26:24;101091.88;;;8.70;84.05
59104;BME280;51449;51.676;5.812;2023-11-21T02:28:47;101088.81;;;8.71;84.13
59104;BME280;51449;51.676;5.812;2023-11-21T02:31:09;101095.13;;;8.72;83.92
59104;BME280;51449;51.676;5.812;2023-11-21T02:33:31;101086.72;;;8.68;84.65
59104;BME280;51449;51.676;5.812;2023-11-21T02:35:55;101094.44;;;8.66;84.86
59104;BME280;51449;51.676;5.812;2023-11-21T02:38:17;101100.25;;;8.65;84.67
59104;BME280;51449;51.676;5.812;2023-11-21T02:40:40;101108.50;;;8.65;85.00
59104;BME280;51449;51.676;5.812;2023-11-21T02:43:02;101103.00;;;8.65;85.16
59104;BME280;51449;51.676;5.812;2023-11-21T02:45:24;101104.63;;;8.66;84.82
59104;BME280;51449;51.676;5.812;2023-11-21T02:47:46;101097.00;;;8.63;85.33
59104;BME280;51449;51.676;5.812;2023-11-21T02:50:09;101104.75;;;8.61;85.40
59104;BME280;51449;51.676;5.812;2023-11-21T02:52:31;101101.19;;;8.60;85.46
59104;BME280;51449;51.676;5.812;2023-11-21T02:54:54;101108.50;;;8.65;85.46
59104;BME280;51449;51.676;5.812;2023-11-21T02:57:16;101104.13;;;8.64;85.43
59104;BME280;51449;51.676;5.812;2023-11-21T02:59:38;101109.63;;;8.64;85.35
59104;BME280;51449;51.676;5.812;2023-11-21T03:02:00;101114.78;;;8.65;85.37
59104;BME280;51449;51.676;5.812;2023-11-21T03:04:23;101109.28;;;8.65;85.42
59104;BME280;51449;51.676;5.812;2023-11-21T03:06:45;101108.50;;;8.65;85.42
59104;BME280;51449;51.676;5.812;2023-11-21T03:09:07;101110.72;;;8.63;85.57
59104;BME280;51449;51.676;5.812;2023-11-21T03:11:29;101114.63;;;8.62;85.42
59104;BME280;51449;51.676;5.812;2023-11-21T03:13:51;101115.41;;;8.62;85.74
59104;BME280;51449;51.676;5.812;2023-11-21T03:16:13;101117.88;;;8.64;85.69
59104;BME280;51449;51.676;5.812;2023-11-21T03:18:39;101123.34;;;8.64;85.99
59104;BME280;51449;51.676;5.812;2023-11-21T03:21:01;101122.53;;;8.63;85.85
59104;BME280;51449;51.676;5.812;2023-11-21T03:23:24;101127.22;;;8.63;85.90
59104;BME280;51449;51.676;5.812;2023-11-21T03:25:46;101123.16;;;8.60;85.81
59104;BME280;51449;51.676;5.812;2023-11-21T03:28:09;101125.59;;;8.62;85.86
59104;BME280;51449;51.676;5.812;2023-11-21T03:30:31;101128.34;;;8.62;86.00
59104;BME280;51449;51.676;5.812;2023-11-21T03:32:52;101122.06;;;8.61;86.27
59104;BME280;51449;51.676;5.812;2023-11-21T03:35:15;101125.59;;;8.62;85.81
59104;BME280;51449;51.676;5.812;2023-11-21T03:37:37;101131.41;;;8.60;86.43
59104;BME280;51449;51.676;5.812;2023-11-21T03:40:04;101131.72;;;8.59;86.20
59104;BME280;51449;51.676;5.812;2023-11-21T03:42:27;101132.53;;;8.59;86.02
59104;BME280;51449;51.676;5.812;2023-11-21T03:44:49;101132.19;;;8.61;86.22
59104;BME280;51449;51.676;5.812;2023-11-21T03:47:10;101118.47;;;8.61;85.77
59104;BME280;51449;51.676;5.812;2023-11-21T03:49:33;101134.16;;;8.60;86.59
59104;BME280;51449;51.676;5.812;2023-11-21T03:51:56;101128.66;;;8.60;86.27
59104;BME280;51449;51.676;5.812;2023-11-21T03:54:18;101133.97;;;8.56;86.66
59104;BME280;51449;51.676;5.812;2023-11-21T03:56:40;101131.22;;;8.56;86.45
59104;BME280;51449;51.676;5.812;2023-11-21T03:59:02;101139.25;;;8.53;86.90
59104;BME280;51449;51.676;5.812;2023-11-21T04:01:25;101134.91;;;8.52;86.92
59104;BME280;51449;51.676;5.812;2023-11-21T04:03:49;101122.09;;;8.47;87.30
59104;BME280;51449;51.676;5.812;2023-11-21T04:06:12;101132.59;;;8.45;87.49
59104;BME280;51449;51.676;5.812;2023-11-21T04:08:35;101134.03;;;8.43;87.54
59104;BME280;51449;51.676;5.812;2023-11-21T04:10:58;101134.81;;;8.43;87.68
59104;BME280;51449;51.676;5.812;2023-11-21T04:13:20;101152.94;;;8.44;87.46
59104;BME280;51449;51.676;5.812;2023-11-21T04:15:42;101151.63;;;8.42;87.65
59104;BME280;51449;51.676;5.812;2023-11-21T04:18:04;101158.22;;;8.41;87.35
59104;BME280;51449;51.676;5.812;2023-11-21T04:20:26;101158.81;;;8.38;87.79
59104;BME280;51449;51.676;5.812;2023-11-21T04:22:48;101164.03;;;8.39;87.67
59104;BME280;51449;51.676;5.812;2023-11-21T04:25:11;101172.47;;;8.43;87.53
59104;BME280;51449;51.676;5.812;2023-11-21T04:27:38;101183.66;;;8.46;87.88
59104;BME280;51449;51.676;5.812;2023-11-21T04:30:01;101182.22;;;8.49;87.56
59104;BME280;51449;51.676;5.812;2023-11-21T04:32:22;101184.34;;;8.52;87.37
59104;BME280;51449;51.676;5.812;2023-11-21T04:34:45;101180.97;;;8.55;87.57
59104;BME280;51449;51.676;5.812;2023-11-21T04:37:07;101179.53;;;8.57;87.32
59104;BME280;51449;51.676;5.812;2023-11-21T04:39:29;101190.22;;;8.59;87.27
59104;BME280;51449;51.676;5.812;2023-11-21T04:41:52;101189.88;;;8.61;87.31
59104;BME280;51449;51.676;5.812;2023-11-21T04:44:14;101192.03;;;8.64;87.37
59104;BME280;51449;51.676;5.812;2023-11-21T04:46:37;101193.94;;;8.63;87.27
59104;BME280;51449;51.676;5.812;2023-11-21T04:49:00;101195.38;;;8.61;87.60
59104;BME280;51449;51.676;5.812;2023-11-21T04:51:22;101204.44;;;8.61;87.47
59104;BME280;51449;51.676;5.812;2023-11-21T04:53:44;101205.56;;;8.60;87.65
59104;BME280;51449;51.676;5.812;2023-11-21T04:56:06;101205.88;;;8.59;87.58
59104;BME280;51449;51.676;5.812;2023-11-21T04:58:28;101209.72;;;8.57;87.85
59104;BME280;51449;51.676;5.812;2023-11-21T05:00:50;101214.41;;;8.57;87.70
59104;BME280;51449;51.676;5.812;2023-11-21T05:03:12;101211.69;;;8.57;87.69
59104;BME280;51449;51.676;5.812;2023-11-21T05:05:34;101222.97;;;8.55;87.78
59104;BME280;51449;51.676;5.812;2023-11-21T05:07:57;101224.91;;;8.55;87.79
59104;BME280;51449;51.676;5.812;2023-11-21T05:10:19;101222.47;;;8.53;87.64
59104;BME280;51449;51.676;5.812;2023-11-21T05:12:42;101221.97;;;8.51;87.54
59104;BME280;51449;51.676;5.812;2023-11-21T05:15:05;101223.88;;;8.51;87.68
59104;BME280;51449;51.676;5.812;2023-11-21T05:17:36;101230.72;;;8.53;88.00
59104;BME280;51449;51.676;5.812;2023-11-21T05:20:01;101222.47;;;8.53;88.00
59104;BME280;51449;51.676;5.812;2023-11-21T05:22:25;101229.88;;;8.53;87.94
59104;BME280;51449;51.676;5.812;2023-11-21T05:24:47;101234.06;;;8.50;87.99
59104;BME280;51449;51.676;5.812;2023-11-21T05:27:09;101233.25;;;8.50;88.03
59104;BME280;51449;51.676;5.812;2023-11-21T05:29:31;101242.31;;;8.50;87.88
59104;BME280;51449;51.676;5.812;2023-11-21T05:31:53;101233.25;;;8.50;87.93
59104;BME280;51449;51.676;5.812;2023-11-21T05:34:15;101244.53;;;8.48;88.07
59104;BME280;51449;51.676;5.812;2023-11-21T05:36:39;101240.19;;;8.47;88.51
59104;BME280;51449;51.676;5.812;2023-11-21T05:39:00;101247.91;;;8.45;88.60
59104;BME280;51449;51.676;5.812;2023-11-21T05:41:22;101245.97;;;8.46;88.39
59104;BME280;51449;51.676;5.812;2023-11-21T05:43:45;101247.09;;;8.45;88.83
59104;BME280;51449;51.676;5.812;2023-11-21T05:46:06;101255.34;;;8.45;88.54
59104;BME280;51449;51.676;5.812;2023-11-21T05:48:29;101253.41;;;8.45;88.58
59104;BME280;51449;51.676;5.812;2023-11-21T05:50:51;101256.66;;;8.47;88.55
59104;BME280;51449;51.676;5.812;2023-11-21T05:53:13;101265.41;;;8.49;88.53
59104;BME280;51449;51.676;5.812;2023-11-21T05:55:37;101261.22;;;8.52;88.20
59104;BME280;51449;51.676;5.812;2023-11-21T05:58:01;101271.59;;;8.55;88.52
59104;BME280;51449;51.676;5.812;2023-11-21T06:00:23;101267.41;;;8.57;88.32
59104;BME280;51449;51.676;5.812;2023-11-21T06:02:48;101275.34;;;8.59;88.33
59104;BME280;51449;51.676;5.812;2023-11-21T06:05:18;101277.28;;;8.59;88.19
59104;BME280;51449;51.676;5.812;2023-11-21T06:07:41;101281.94;;;8.58;88.33
59104;BME280;51449;51.676;5.812;2023-11-21T06:10:04;101286.34;;;8.59;88.29
59104;BME280;51449;51.676;5.812;2023-11-21T06:12:34;101291.03;;;8.59;88.39
59104;BME280;51449;51.676;5.812;2023-11-21T06:14:57;101289.38;;;8.57;88.57
59104;BME280;51449;51.676;5.812;2023-11-21T06:17:19;101286.34;;;8.59;88.56
59104;BME280;51449;51.676;5.812;2023-11-21T06:19:41;101287.94;;;8.60;88.46
59104;BME280;51449;51.676;5.812;2023-11-21T06:22:03;101296.19;;;8.60;88.56
59104;BME280;51449;51.676;5.812;2023-11-21T06:24:25;101292.34;;;8.61;88.34
59104;BME280;51449;51.676;5.812;2023-11-21T06:26:47;101295.38;;;8.60;88.55
59104;BME280;51449;51.676;5.812;2023-11-21T06:29:10;101294.88;;;8.57;88.59
59104;BME280;51449;51.676;5.812;2023-11-21T06:31:32;101302.59;;;8.55;88.58
59104;BME280;51449;51.676;5.812;2023-11-21T06:33:54;101304.25;;;8.56;88.61
59104;BME280;51449;51.676;5.812;2023-11-21T06:36:16;101305.56;;;8.59;88.66
59104;BME280;51449;51.676;5.812;2023-11-21T06:38:38;101307.19;;;8.60;88.59
59104;BME280;51449;51.676;5.812;2023-11-21T06:41:00;101310.72;;;8.61;88.30
59104;BME280;51449;51.676;5.812;2023-11-21T06:43:26;101311.56;;;8.61;88.61
59104;BME280;51449;51.676;5.812;2023-11-21T06:45:48;101316.22;;;8.61;88.30
59104;BME280;51449;51.676;5.812;2023-11-21T06:48:10;101311.56;;;8.61;88.41
59104;BME280;51449;51.676;5.812;2023-11-21T06:50:32;101317.06;;;8.61;88.45
59104;BME280;51449;51.676;5.812;2023-11-21T06:52:54;101314.59;;;8.60;88.49
59104;BME280;51449;51.676;5.812;2023-11-21T06:55:16;101323.16;;;8.58;88.47
59104;BME280;51449;51.676;5.812;2023-11-21T06:57:38;101324.28;;;8.57;88.51
59104;BME280;51449;51.676;5.812;2023-11-21T07:00:00;101321.53;;;8.57;88.32
59104;BME280;51449;51.676;5.812;2023-11-21T07:02:21;101331.09;;;8.60;88.57
59104;BME280;51449;51.676;5.812;2023-11-21T07:04:47;101329.97;;;8.61;88.22
59104;BME280;51449;51.676;5.812;2023-11-21T07:07:09;101337.91;;;8.62;88.45
59104;BME280;51449;51.676;5.812;2023-11-21T07:09:30;101338.72;;;8.63;88.36
59104;BME280;51449;51.676;5.812;2023-11-21T07:11:52;101342.25;;;8.63;88.65
59104;BME280;51449;51.676;5.812;2023-11-21T07:14:17;101352.94;;;8.65;88.32
59104;BME280;51449;51.676;5.812;2023-11-21T07:16:40;101346.34;;;8.66;88.56
59104;BME280;51449;51.676;5.812;2023-11-21T07:19:06;101352.31;;;8.68;88.53
59104;BME280;51449;51.676;5.812;2023-11-21T07:21:28;101367.09;;;8.72;88.52
59104;BME280;51449;51.676;5.812;2023-11-21T07:23:50;101371.94;;;8.75;88.54
59104;BME280;51449;51.676;5.812;2023-11-21T07:26:12;101372.47;;;8.77;88.44
59104;BME280;51449;51.676;5.812;2023-11-21T07:28:34;101380.59;;;8.82;88.49
59104;BME280;51449;51.676;5.812;2023-11-21T07:30:56;101384.34;;;8.86;88.59
59104;BME280;51449;51.676;5.812;2023-11-21T07:33:17;101389.56;;;8.88;88.68
59104;BME280;51449;51.676;5.812;2023-11-21T07:35:40;101396.38;;;8.90;88.58
59104;BME280;51449;51.676;5.812;2023-11-21T07:38:01;101394.09;;;8.92;88.37
59104;BME280;51449;51.676;5.812;2023-11-21T07:40:23;101395.13;;;8.96;88.53
59104;BME280;51449;51.676;5.812;2023-11-21T07:42:45;101398.69;;;8.97;88.31
59104;BME280;51449;51.676;5.812;2023-11-21T07:45:07;101397.56;;;8.98;88.47
59104;BME280;51449;51.676;5.812;2023-11-21T07:47:30;101402.75;;;8.99;88.71
59104;BME280;51449;51.676;5.812;2023-11-21T07:49:56;101410.19;;;8.99;88.40
59104;BME280;51449;51.676;5.812;2023-11-21T07:52:18;101403.06;;;8.98;88.62
59104;BME280;51449;51.676;5.812;2023-11-21T07:54:40;101405.50;;;8.99;88.78
59104;BME280;51449;51.676;5.812;2023-11-21T07:57:02;101409.06;;;9.00;88.68
59104;BME280;51449;51.676;5.812;2023-11-21T07:59:25;101408.56;;;8.98;88.67
59104;BME280;51449;51.676;5.812;2023-11-21T08:01:47;101414.88;;;8.98;88.71
59104;BME280;51449;51.676;5.812;2023-11-21T08:04:09;101415.69;;;8.99;88.76
59104;BME280;51449;51.676;5.812;2023-11-21T08:06:31;101423.13;;;8.98;88.65
59104;BME280;51449;51.676;5.812;2023-11-21T08:08:52;101425.56;;;9.00;88.85
59104;BME280;51449;51.676;5.812;2023-11-21T08:11:14;101426.38;;;9.00;88.72
59104;BME280;51449;51.676;5.812;2023-11-21T08:13:36;101430.72;;;9.02;88.96
59104;BME280;51449;51.676;5.812;2023-11-21T08:15:58;101431.75;;;9.06;88.87
59104;BME280;51449;51.676;5.812;2023-11-21T08:18:24;101429.19;;;9.09;88.92
59104;BME280;51449;51.676;5.812;2023-11-21T08:20:46;101437.66;;;9.13;89.11
59104;BME280;51449;51.676;5.812;2023-11-21T08:23:11;101438.16;;;9.15;89.13
59104;BME280;51449;51.676;5.812;2023-11-21T08:25:33;101446.91;;;9.17;89.15
59104;BME280;51449;51.676;5.812;2023-11-21T08:27:56;101443.84;;;9.18;89.06
59104;BME280;51449;51.676;5.812;2023-11-21T08:30:18;101455.03;;;9.22;89.33
59104;BME280;51449;51.676;5.812;2023-11-21T08:32:41;101448.41;;;9.23;88.98
59104;BME280;51449;51.676;5.812;2023-11-21T08:35:04;101453.00;;;9.28;89.00
59104;BME280;51449;51.676;5.812;2023-11-21T08:37:27;101458.19;;;9.29;89.06
59104;BME280;51449;51.676;5.812;2023-11-21T08:39:51;101455.22;;;9.26;89.43
59104;BME280;51449;51.676;5.812;2023-11-21T08:42:14;101468.69;;;9.27;89.31
59104;BME280;51449;51.676;5.812;2023-11-21T08:44:36;101473.84;;;9.29;89.19
59104;BME280;51449;51.676;5.812;2023-11-21T08:46:58;101477.09;;;9.31;88.99
59104;BME280;51449;51.676;5.812;2023-11-21T08:49:20;101479.22;;;9.34;89.31
59104;BME280;51449;51.676;5.812;2023-11-21T08:51:44;101488.81;;;9.36;89.20
59104;BME280;51449;51.676;5.812;2023-11-21T08:54:06;101494.00;;;9.38;89.18
59104;BME280;51449;51.676;5.812;2023-11-21T08:56:29;101489.50;;;9.42;89.35
59104;BME280;51449;51.676;5.812;2023-11-21T08:58:51;101493.59;;;9.45;89.42
59104;BME280;51449;51.676;5.812;2023-11-21T09:01:14;101486.66;;;9.47;89.85
59104;BME280;51449;51.676;5.812;2023-11-21T09:03:36;101488.13;;;9.53;89.44
59104;BME280;51449;51.676;5.812;2023-11-21T09:05:58;101496.91;;;9.55;89.60
59104;BME280;51449;51.676;5.812;2023-11-21T09:08:20;101501.47;;;9.60;89.47
59104;BME280;51449;51.676;5.812;2023-11-21T09:10:43;101491.78;;;9.62;89.35
59104;BME280;51449;51.676;5.812;2023-11-21T09:13:08;101498.00;;;9.68;89.69
59104;BME280;51449;51.676;5.812;2023-11-21T09:15:31;101502.88;;;9.71;89.80
59104;BME280;51449;51.676;5.812;2023-11-21T09:17:53;101503.06;;;9.75;89.86
59104;BME280;51449;51.676;5.812;2023-11-21T09:20:15;101504.06;;;9.79;89.74
59104;BME280;51449;51.676;5.812;2023-11-21T09:22:37;101509.28;;;9.80;89.88
59104;BME280;51449;51.676;5.812;2023-11-21T09:24:59;101506.19;;;9.82;89.97
59104;BME280;51449;51.676;5.812;2023-11-21T09:27:21;101510.47;;;9.88;89.95
59104;BME280;51449;51.676;5.812;2023-11-21T09:29:43;101513.09;;;9.93;89.96
59104;BME280;51449;51.676;5.812;2023-11-21T09:32:06;101517.31;;;9.99;89.92
59104;BME280;51449;51.676;5.812;2023-11-21T09:34:29;101517.03;;;10.01;89.73
59104;BME280;51449;51.676;5.812;2023-11-21T09:36:52;101518.03;;;10.05;89.93
59104;BME280;51449;51.676;5.812;2023-11-21T09:39:14;101521.78;;;10.09;89.88
59104;BME280;51449;51.676;5.812;2023-11-21T09:41:43;101523.28;;;10.15;89.71
59104;BME280;51449;51.676;5.812;2023-11-21T09:44:08;101533.66;;;10.18;89.93
59104;BME280;51449;51.676;5.812;2023-11-21T09:46:35;101533.66;;;10.18;89.70
59104;BME280;51449;51.676;5.812;2023-11-21T09:49:02;101536.13;;;10.20;89.90
59104;BME280;51449;51.676;5.812;2023-11-21T09:51:27;101544.03;;;10.21;89.96
59104;BME280;51449;51.676;5.812;2023-11-21T09:53:55;101546.19;;;10.24;89.85
59104;BME280;51449;51.676;5.812;2023-11-21T09:56:21;101555.78;;;10.27;90.15
59104;BME280;51449;51.676;5.812;2023-11-21T09:58:45;101554.34;;;10.30;89.91
59104;BME280;51449;51.676;5.812;2023-11-21T10:01:09;101565.38;;;10.30;90.02
59104;BME280;51449;51.676;5.812;2023-11-21T10:03:31;101567.00;;;10.31;90.03
59104;BME280;51449;51.676;5.812;2023-11-21T10:05:53;101565.88;;;10.32;90.40
59104;BME280;51449;51.676;5.812;2023-11-21T10:08:15;101573.00;;;10.33;89.88
59104;BME280;51449;51.676;5.812;2023-11-21T10:10:38;101574.94;;;10.32;89.60
59104;BME280;51449;51.676;5.812;2023-11-21T10:13:12;101579.31;;;10.33;89.32
59104;BME280;51449;51.676;5.812;2023-11-21T10:15:40;101577.88;;;10.36;89.32
59104;BME280;51449;51.676;5.812;2023-11-21T10:18:07;101582.28;;;10.37;89.15
59104;BME280;51449;51.676;5.812;2023-11-21T10:20:32;101582.78;;;10.39;89.30
59104;BME280;51449;51.676;5.812;2023-11-21T10:22:55;101592.03;;;10.43;89.14
59104;BME280;51449;51.676;5.812;2023-11-21T10:25:18;101587.03;;;10.45;89.49
59104;BME280;51449;51.676;5.812;2023-11-21T10:27:42;101594.66;;;10.48;89.70
59104;BME280;51449;51.676;5.812;2023-11-21T10:30:08;101595.66;;;10.52;89.38
59104;BME280;51449;51.676;5.812;2023-11-21T10:32:36;101600.03;;;10.53;89.22
59104;BME280;51449;51.676;5.812;2023-11-21T10:35:01;101606.69;;;10.52;89.45
59104;BME280;51449;51.676;5.812;2023-11-21T10:37:28;101607.81;;;10.51;89.34
59104;BME280;51449;51.676;5.812;2023-11-21T10:39:50;101604.22;;;10.50;89.27
59104;BME280;51449;51.676;5.812;2023-11-21T10:42:12;101613.63;;;10.49;89.14
59104;BME280;51449;51.676;5.812;2023-11-21T10:44:34;101603.75;;;10.48;89.14
59104;BME280;51449;51.676;5.812;2023-11-21T10:46:56;101606.16;;;10.50;89.10
59104;BME280;51449;51.676;5.812;2023-11-21T10:49:23;101608.94;;;10.50;88.82
59104;BME280;51449;51.676;5.812;2023-11-21T10:51:46;101612.19;;;10.52;89.04
59104;BME280;51449;51.676;5.812;2023-11-21T10:54:10;101607.81;;;10.51;89.04
59104;BME280;51449;51.676;5.812;2023-11-21T10:56:36;101603.91;;;10.52;89.30
59104;BME280;51449;51.676;5.812;2023-11-21T10:59:02;101603.28;;;10.55;89.26
59104;BME280;51449;51.676;5.812;2023-11-21T11:01:27;101594.38;;;10.58;89.54
59104;BME280;51449;51.676;5.812;2023-11-21T11:03:52;101600.59;;;10.64;89.56
59104;BME280;51449;51.676;5.812;2023-11-21T11:06:16;101601.78;;;10.71;89.63
59104;BME280;51449;51.676;5.812;2023-11-21T11:08:39;101597.75;;;10.78;89.57
59104;BME280;51449;51.676;5.812;2023-11-21T11:11:02;101603.75;;;10.80;89.78
59104;BME280;51449;51.676;5.812;2023-11-21T11:13:24;101611.72;;;10.81;89.88
59104;BME280;51449;51.676;5.812;2023-11-21T11:15:48;101614.47;;;10.81;89.86
59104;BME280;51449;51.676;5.812;2023-11-21T11:18:11;101618.53;;;10.84;89.53
59104;BME280;51449;51.676;5.812;2023-11-21T11:20:35;101615.94;;;10.87;89.43
59104;BME280;51449;51.676;5.812;2023-11-21T11:23:29;101627.19;;;10.91;89.59
59104;BME280;51449;51.676;5.812;2023-11-21T11:26:48;101630.75;;;10.91;89.56
59104;BME280;51449;51.676;5.812;2023-11-21T11:35:04;101636.25;;;10.91;89.71
59104;BME280;51449;51.676;5.812;2023-11-21T11:37:32;101626.72;;;10.98;89.41
59104;BME280;51449;51.676;5.812;2023-11-21T11:39:55;101635.66;;;11.03;90.06
59104;BME280;51449;51.676;5.812;2023-11-21T11:42:17;101637.16;;;11.09;89.70
59104;BME280;51449;51.676;5.812;2023-11-21T11:47:13;101656.94;;;11.11;89.38
59104;BME280;51449;51.676;5.812;2023-11-21T11:50:12;101673.00;;;11.09;89.04
59104;BME280;51449;51.676;5.812;2023-11-21T11:52:39;101671.22;;;11.05;88.41
59104;BME280;51449;51.676;5.812;2023-11-21T11:55:15;101671.97;;;10.97;88.58
59104;BME280;51449;51.676;5.812;2023-11-21T11:57:42;101685.38;;;10.89;88.47
59104;BME280;51449;51.676;5.812;2023-11-21T12:02:51;101694.22;;;10.78;89.04
59104;BME280;51449;51.676;5.812;2023-11-21T12:05:16;101684.63;;;10.75;89.09
59104;BME280;51449;51.676;5.812;2023-11-21T12:07:51;101689.97;;;10.71;89.77
59104;BME280;51449;51.676;5.812;2023-11-21T12:10:17;101691.41;;;10.69;89.40
59104;BME280;51449;51.676;5.812;2023-11-21T12:12:45;101699.97;;;10.67;89.78
59104;BME280;51449;51.676;5.812;2023-11-21T12:15:12;101702.22;;;10.65;89.75
59104;BME280;51449;51.676;5.812;2023-11-21T12:17:35;101699.47;;;10.65;89.77
59104;BME280;51449;51.676;5.812;2023-11-21T12:20:03;101699.47;;;10.65;90.35
59104;BME280;51449;51.676;5.812;2023-11-21T12:22:28;101705.00;;;10.65;90.36
59104;BME280;51449;51.676;5.812;2023-11-21T12:24:50;101691.22;;;10.65;90.67
59104;BME280;51449;51.676;5.812;2023-11-21T12:27:12;101701.44;;;10.65;90.85
59104;BME280;51449;51.676;5.812;2023-11-21T12:29:36;101706.94;;;10.65;91.03
59104;BME280;51449;51.676;5.812;2023-11-21T12:32:03;101705.81;;;10.66;91.15
59104;BME280;51449;51.676;5.812;2023-11-21T12:34:26;101711.50;;;10.69;91.43
59104;BME280;51449;51.676;5.812;2023-11-21T12:36:49;101713.63;;;10.73;91.53
59104;BME280;51449;51.676;5.812;2023-11-21T12:39:16;101718.53;;;10.76;91.56
59104;BME280;51449;51.676;5.812;2023-11-21T12:41:40;101720.16;;;10.77;91.63
59104;BME280;51449;51.676;5.812;2023-11-21T12:44:09;101729.25;;;10.77;91.34
59104;BME280;51449;51.676;5.812;2023-11-21T12:46:35;101723.94;;;10.81;91.78
59104;BME280;51449;51.676;5.812;2023-11-21T12:48:59;101728.31;;;10.82;91.58